createdAt,value
2018-07-16T02:00:21.472Z,0
2018-07-16T02:00:25.465Z,0
2018-07-16T02:00:29.783Z,0
2018-07-16T02:00:33.989Z,0
2018-07-16T02:00:37.980Z,0
2018-07-16T02:00:42.078Z,0
2018-07-16T02:00:46.172Z,0
2018-07-16T02:00:50.378Z,0
2018-07-16T02:00:54.581Z,0
2018-07-16T02:00:58.889Z,0
2018-07-16T02:01:02.993Z,0
2018-07-16T02:01:07.322Z,0
2018-07-16T02:01:11.532Z,0
2018-07-16T02:01:15.845Z,0
2018-07-16T02:01:20.163Z,0
2018-07-16T02:01:24.367Z,0
2018-07-16T02:01:28.672Z,0
2018-07-16T02:01:32.875Z,0
2018-07-16T02:01:37.080Z,0
2018-07-16T02:01:41.390Z,0
2018-07-16T02:01:45.508Z,0
2018-07-16T02:01:49.717Z,0
2018-07-16T02:01:53.920Z,0
2018-07-16T02:01:58.016Z,0
2018-07-16T02:02:02.325Z,0
2018-07-16T02:02:06.534Z,0
2018-07-16T02:02:10.856Z,0
2018-07-16T02:02:15.065Z,0
2018-07-16T02:02:19.381Z,0
2018-07-16T02:02:23.694Z,0
2018-07-16T02:02:27.789Z,0
2018-07-16T02:02:31.992Z,0
2018-07-16T02:02:36.098Z,0
2018-07-16T02:02:40.405Z,0
2018-07-16T02:02:44.497Z,0
2018-07-16T02:02:48.810Z,0
2018-07-16T02:02:53.021Z,0
2018-07-16T02:02:57.119Z,0
2018-07-16T02:03:01.487Z,0
2018-07-16T02:03:05.480Z,0
2018-07-16T02:03:09.795Z,0
2018-07-16T02:03:14.102Z,0
2018-07-16T02:03:18.406Z,0
2018-07-16T02:03:22.615Z,0
2018-07-16T02:03:26.928Z,0
2018-07-16T02:03:31.280Z,0
2018-07-16T02:03:35.594Z,0
2018-07-16T02:03:39.791Z,0
2018-07-16T02:03:44.101Z,0
2018-07-16T02:03:48.457Z,0
2018-07-16T02:03:52.658Z,0
2018-07-16T02:03:56.972Z,0
2018-07-16T02:04:01.281Z,0
2018-07-16T02:04:05.486Z,0
2018-07-16T02:04:09.590Z,0
2018-07-16T02:04:13.791Z,0
2018-07-16T02:04:18.100Z,0
2018-07-16T02:04:22.413Z,0
2018-07-16T02:04:26.635Z,0
2018-07-16T02:04:30.737Z,0
2018-07-16T02:04:34.832Z,0
2018-07-16T02:04:39.034Z,0
2018-07-16T02:04:43.128Z,0
2018-07-16T02:04:47.326Z,0
2018-07-16T02:04:51.637Z,0
2018-07-16T02:04:55.948Z,0
2018-07-16T02:05:00.259Z,0
2018-07-16T02:05:04.464Z,0
2018-07-16T02:05:08.662Z,0
2018-07-16T02:05:12.865Z,0
2018-07-16T02:05:17.193Z,0
2018-07-16T02:05:21.502Z,0
2018-07-16T02:05:25.600Z,0
2018-07-16T02:05:29.904Z,0
2018-07-16T02:05:34.006Z,0
2018-07-16T02:05:38.105Z,0
2018-07-16T02:05:42.327Z,0
2018-07-16T02:05:46.428Z,0
2018-07-16T02:05:50.631Z,0
2018-07-16T02:05:54.943Z,0
2018-07-16T02:05:59.151Z,0
2018-07-16T02:06:03.461Z,0
2018-07-16T02:06:07.781Z,0
2018-07-16T02:06:12.099Z,0
2018-07-16T02:06:16.415Z,0
2018-07-16T02:06:20.725Z,0
2018-07-16T02:06:25.035Z,0
2018-07-16T02:06:29.346Z,0
2018-07-16T02:06:33.651Z,0
2018-07-16T02:06:37.961Z,0
2018-07-16T02:06:42.278Z,0
2018-07-16T02:06:46.600Z,0
2018-07-16T02:06:50.800Z,0
2018-07-16T02:06:55.115Z,0
2018-07-16T02:06:59.208Z,0
2018-07-16T02:07:03.304Z,0
2018-07-16T02:07:07.400Z,0
2018-07-16T02:07:11.719Z,0
2018-07-16T02:07:15.929Z,0
2018-07-16T02:07:20.134Z,0
2018-07-16T02:07:24.444Z,0
2018-07-16T02:07:28.541Z,0
2018-07-16T02:07:32.693Z,0
2018-07-16T02:07:36.682Z,0
2018-07-16T02:07:40.993Z,0
2018-07-16T02:07:45.199Z,0
2018-07-16T02:07:49.406Z,0
2018-07-16T02:07:53.502Z,0
2018-07-16T02:07:57.809Z,0
2018-07-16T02:08:01.925Z,0
2018-07-16T02:08:06.129Z,0
2018-07-16T02:08:10.441Z,0
2018-07-16T02:08:14.549Z,0
2018-07-16T02:08:18.651Z,0
2018-07-16T02:08:22.852Z,0
2018-07-16T02:08:27.069Z,0
2018-07-16T02:08:31.280Z,0
2018-07-16T02:08:35.498Z,0
2018-07-16T02:08:39.695Z,0
2018-07-16T02:08:43.687Z,0
2018-07-16T02:08:47.885Z,0
2018-07-16T02:08:52.203Z,0
2018-07-16T02:08:56.515Z,0
2018-07-16T02:09:00.828Z,0
2018-07-16T02:09:04.818Z,0
2018-07-16T02:09:09.017Z,0
2018-07-16T02:09:13.115Z,0
2018-07-16T02:09:17.426Z,0
2018-07-16T02:09:21.624Z,0
2018-07-16T02:09:25.504Z,0
2018-07-16T02:09:29.598Z,0
2018-07-16T02:09:33.803Z,0
2018-07-16T02:09:37.799Z,0
2018-07-16T02:09:41.896Z,0
2018-07-16T02:09:45.997Z,0
2018-07-16T02:09:50.310Z,0
2018-07-16T02:09:54.622Z,0
2018-07-16T02:09:58.834Z,0
2018-07-16T02:10:02.936Z,0
2018-07-16T02:10:06.825Z,0
2018-07-16T02:10:11.137Z,0
2018-07-16T02:10:15.443Z,0
2018-07-16T02:10:19.643Z,0
2018-07-16T02:10:23.860Z,0
2018-07-16T02:10:28.069Z,0
2018-07-16T02:10:32.275Z,0
2018-07-16T02:10:36.480Z,0
2018-07-16T02:10:40.682Z,0
2018-07-16T02:10:44.793Z,0
2018-07-16T02:10:49.109Z,0
2018-07-16T02:10:53.308Z,0
2018-07-16T02:10:57.621Z,0
2018-07-16T02:11:01.770Z,0
2018-07-16T02:11:05.971Z,0
2018-07-16T02:11:10.074Z,0
2018-07-16T02:11:14.382Z,0
2018-07-16T02:11:18.588Z,0
2018-07-16T02:11:22.789Z,0
2018-07-16T02:11:26.883Z,0
2018-07-16T02:11:31.097Z,0
2018-07-16T02:11:35.403Z,0
2018-07-16T02:11:39.716Z,0
2018-07-16T02:11:43.920Z,0
2018-07-16T02:11:48.126Z,0
2018-07-16T02:11:52.445Z,0
2018-07-16T02:11:56.550Z,0
2018-07-16T02:12:00.762Z,0
2018-07-16T02:12:04.970Z,0
2018-07-16T02:12:09.174Z,0
2018-07-16T02:12:13.374Z,0
2018-07-16T02:12:17.577Z,0
2018-07-16T02:12:21.884Z,0
2018-07-16T02:12:26.090Z,0
2018-07-16T02:12:30.401Z,0
2018-07-16T02:12:34.727Z,0
2018-07-16T02:12:38.719Z,0
2018-07-16T02:12:42.917Z,0
2018-07-16T02:12:47.123Z,0
2018-07-16T02:12:51.436Z,0
2018-07-16T02:12:55.640Z,0
2018-07-16T02:12:59.947Z,0
2018-07-16T02:13:04.317Z,0
2018-07-16T02:13:08.321Z,0
2018-07-16T02:13:12.632Z,0
2018-07-16T02:13:16.732Z,0
2018-07-16T02:13:21.038Z,0
2018-07-16T02:13:25.135Z,0
2018-07-16T02:13:29.445Z,0
2018-07-16T02:13:33.764Z,0
2018-07-16T02:13:37.962Z,0
2018-07-16T02:13:41.950Z,0
2018-07-16T02:13:45.941Z,0
2018-07-16T02:13:50.255Z,0
2018-07-16T02:13:54.352Z,0
2018-07-16T02:13:58.708Z,0
2018-07-16T02:14:03.068Z,0
2018-07-16T02:14:07.263Z,0
2018-07-16T02:14:11.476Z,0
2018-07-16T02:14:15.783Z,0
2018-07-16T02:14:20.090Z,0
2018-07-16T02:14:24.292Z,0
2018-07-16T02:14:28.171Z,0
2018-07-16T02:14:32.318Z,0
2018-07-16T02:14:36.522Z,0
2018-07-16T02:14:40.723Z,0
2018-07-16T02:14:44.839Z,0
2018-07-16T02:14:49.048Z,0
2018-07-16T02:14:53.253Z,0
2018-07-16T02:14:57.455Z,0
2018-07-16T02:15:01.773Z,0
2018-07-16T02:15:06.101Z,0
2018-07-16T02:15:10.193Z,0
2018-07-16T02:15:14.293Z,0
2018-07-16T02:15:18.388Z,0
2018-07-16T02:15:22.276Z,0
2018-07-16T02:15:26.482Z,0
2018-07-16T02:15:30.791Z,0
2018-07-16T02:15:34.997Z,0
2018-07-16T02:15:39.194Z,0
2018-07-16T02:15:43.292Z,0
2018-07-16T02:15:47.399Z,0
2018-07-16T02:15:51.608Z,0
2018-07-16T02:15:55.814Z,0
2018-07-16T02:16:00.122Z,0
2018-07-16T02:16:04.014Z,0
2018-07-16T02:16:08.331Z,0
2018-07-16T02:16:12.656Z,0
2018-07-16T02:16:16.970Z,0
2018-07-16T02:16:20.958Z,0
2018-07-16T02:16:25.051Z,0
2018-07-16T02:16:29.145Z,0
2018-07-16T02:16:33.455Z,0
2018-07-16T02:16:37.556Z,0
2018-07-16T02:16:41.807Z,0
2018-07-16T02:16:45.901Z,0
2018-07-16T02:16:50.214Z,0
2018-07-16T02:16:54.414Z,0
2018-07-16T02:16:58.728Z,0
2018-07-16T02:17:02.720Z,0
2018-07-16T02:17:06.929Z,0
2018-07-16T02:17:11.029Z,0
2018-07-16T02:17:15.132Z,0
2018-07-16T02:17:19.344Z,0
2018-07-16T02:17:23.454Z,0
2018-07-16T02:17:27.458Z,0
2018-07-16T02:17:31.769Z,0
2018-07-16T02:17:35.971Z,0
2018-07-16T02:17:40.176Z,0
2018-07-16T02:17:44.377Z,0
2018-07-16T02:17:48.584Z,0
2018-07-16T02:17:52.789Z,0
2018-07-16T02:17:57.094Z,0
2018-07-16T02:18:01.194Z,0
2018-07-16T02:18:05.299Z,0
2018-07-16T02:18:09.615Z,0
2018-07-16T02:18:13.821Z,0
2018-07-16T02:18:18.037Z,0
2018-07-16T02:18:22.353Z,0
2018-07-16T02:18:26.556Z,0
2018-07-16T02:18:30.656Z,0
2018-07-16T02:18:34.968Z,0
2018-07-16T02:18:39.072Z,0
2018-07-16T02:18:43.174Z,0
2018-07-16T02:18:47.270Z,0
2018-07-16T02:18:51.369Z,0
2018-07-16T02:18:55.476Z,0
2018-07-16T02:18:59.792Z,0
2018-07-16T02:19:03.997Z,0
2018-07-16T02:19:08.195Z,0
2018-07-16T02:19:12.402Z,0
2018-07-16T02:19:16.611Z,0
2018-07-16T02:19:20.719Z,0
2018-07-16T02:19:24.924Z,0
2018-07-16T02:19:28.807Z,0
2018-07-16T02:19:33.117Z,0
2018-07-16T02:19:37.438Z,0
2018-07-16T02:19:41.743Z,0
2018-07-16T02:19:45.956Z,0
2018-07-16T02:19:50.263Z,0
2018-07-16T02:19:54.466Z,0
2018-07-16T02:19:58.667Z,0
2018-07-16T02:20:02.971Z,0
2018-07-16T02:20:07.185Z,0
2018-07-16T02:20:11.389Z,0
2018-07-16T02:20:15.599Z,0
2018-07-16T02:20:19.801Z,0
2018-07-16T02:20:23.893Z,0
2018-07-16T02:20:28.097Z,0
2018-07-16T02:20:32.194Z,0
2018-07-16T02:20:36.401Z,0
2018-07-16T02:20:40.497Z,0
2018-07-16T02:20:44.810Z,0
2018-07-16T02:20:48.906Z,0
2018-07-16T02:20:53.227Z,0
2018-07-16T02:20:57.430Z,0
2018-07-16T02:21:01.637Z,0
2018-07-16T02:21:05.837Z,0
2018-07-16T02:21:10.041Z,0
2018-07-16T02:21:14.353Z,0
2018-07-16T02:21:18.667Z,0
2018-07-16T02:21:22.970Z,0
2018-07-16T02:21:27.170Z,0
2018-07-16T02:21:31.482Z,0
2018-07-16T02:21:35.581Z,0
2018-07-16T02:21:39.886Z,0
2018-07-16T02:21:43.988Z,0
2018-07-16T02:21:48.299Z,0
2018-07-16T02:21:52.500Z,0
2018-07-16T02:21:56.806Z,0
2018-07-16T02:22:01.007Z,0
2018-07-16T02:22:05.106Z,0
2018-07-16T02:22:09.208Z,0
2018-07-16T02:22:13.522Z,0
2018-07-16T02:22:17.736Z,0
2018-07-16T02:22:22.048Z,0
2018-07-16T02:22:26.356Z,0
2018-07-16T02:22:30.454Z,0
2018-07-16T02:22:34.668Z,0
2018-07-16T02:22:38.978Z,0
2018-07-16T02:22:43.179Z,0
2018-07-16T02:22:47.388Z,0
2018-07-16T02:22:51.700Z,0
2018-07-16T02:22:55.713Z,0
2018-07-16T02:23:00.025Z,0
2018-07-16T02:23:04.243Z,0
2018-07-16T02:23:08.239Z,0
2018-07-16T02:23:12.509Z,0
2018-07-16T02:23:16.813Z,0
2018-07-16T02:23:20.921Z,0
2018-07-16T02:23:25.018Z,0
2018-07-16T02:23:29.328Z,0
2018-07-16T02:23:33.428Z,0
2018-07-16T02:23:37.643Z,0
2018-07-16T02:23:41.843Z,0
2018-07-16T02:23:46.154Z,0
2018-07-16T02:23:50.469Z,0
2018-07-16T02:23:54.678Z,0
2018-07-16T02:23:58.777Z,0
2018-07-16T02:24:03.097Z,0
2018-07-16T02:24:07.302Z,0
2018-07-16T02:24:11.393Z,0
2018-07-16T02:24:15.590Z,0
2018-07-16T02:24:19.791Z,0
2018-07-16T02:24:24.104Z,0
2018-07-16T02:24:28.204Z,0
2018-07-16T02:24:32.520Z,0
2018-07-16T02:24:36.508Z,0
2018-07-16T02:24:40.815Z,0
2018-07-16T02:24:45.127Z,0
2018-07-16T02:24:49.219Z,0
2018-07-16T02:24:53.421Z,0
2018-07-16T02:24:57.624Z,0
2018-07-16T02:25:01.979Z,0
2018-07-16T02:25:06.078Z,0
2018-07-16T02:25:10.281Z,0
2018-07-16T02:25:14.651Z,0
2018-07-16T02:25:18.853Z,0
2018-07-16T02:25:23.163Z,0
2018-07-16T02:25:27.368Z,0
2018-07-16T02:25:31.576Z,0
2018-07-16T02:25:35.677Z,0
2018-07-16T02:25:39.783Z,0
2018-07-16T02:25:43.884Z,0
2018-07-16T02:25:48.217Z,0
2018-07-16T02:25:52.316Z,0
2018-07-16T02:25:56.519Z,0
2018-07-16T02:26:00.733Z,0
2018-07-16T02:26:04.826Z,0
2018-07-16T02:26:08.926Z,0
2018-07-16T02:26:13.127Z,0
2018-07-16T02:26:17.337Z,0
2018-07-16T02:26:21.641Z,0
2018-07-16T02:26:25.961Z,0
2018-07-16T02:26:30.273Z,0
2018-07-16T02:26:34.264Z,0
2018-07-16T02:26:38.574Z,0
2018-07-16T02:26:42.778Z,0
2018-07-16T02:26:47.099Z,0
2018-07-16T02:26:51.305Z,0
2018-07-16T02:26:55.408Z,0
2018-07-16T02:26:59.616Z,0
2018-07-16T02:27:03.827Z,0
2018-07-16T02:27:08.036Z,0
2018-07-16T02:27:12.397Z,0
2018-07-16T02:27:16.608Z,0
2018-07-16T02:27:20.706Z,0
2018-07-16T02:27:24.923Z,0
2018-07-16T02:27:29.230Z,0
2018-07-16T02:27:33.221Z,0
2018-07-16T02:27:37.483Z,0
2018-07-16T02:27:41.796Z,0
2018-07-16T02:27:46.005Z,0
2018-07-16T02:27:50.209Z,0
2018-07-16T02:27:54.410Z,0
2018-07-16T02:27:58.725Z,0
2018-07-16T02:28:02.726Z,0
2018-07-16T02:28:06.723Z,0
2018-07-16T02:28:10.822Z,0
2018-07-16T02:28:15.026Z,0
2018-07-16T02:28:19.397Z,0
2018-07-16T02:28:23.611Z,0
2018-07-16T02:28:27.810Z,0
2018-07-16T02:28:32.117Z,0
2018-07-16T02:28:36.319Z,0
2018-07-16T02:28:40.414Z,0
2018-07-16T02:28:44.720Z,0
2018-07-16T02:28:48.920Z,0
2018-07-16T02:28:53.237Z,0
2018-07-16T02:28:57.333Z,0
2018-07-16T02:29:01.540Z,0
2018-07-16T02:29:05.754Z,0
2018-07-16T02:29:09.956Z,0
2018-07-16T02:29:14.160Z,0
2018-07-16T02:29:18.464Z,0
2018-07-16T02:29:22.666Z,0
2018-07-16T02:29:26.873Z,0
2018-07-16T02:29:31.206Z,0
2018-07-16T02:29:35.518Z,0
2018-07-16T02:29:39.726Z,0
2018-07-16T02:29:44.040Z,0
2018-07-16T02:29:48.245Z,0
2018-07-16T02:29:52.554Z,0
2018-07-16T02:29:56.867Z,0
2018-07-16T02:30:01.077Z,0
2018-07-16T02:30:05.184Z,0
2018-07-16T02:30:09.293Z,0
2018-07-16T02:30:13.547Z,0
2018-07-16T02:30:17.879Z,0
2018-07-16T02:30:22.206Z,0
2018-07-16T02:30:26.339Z,0
2018-07-16T02:30:30.675Z,0
2018-07-16T02:30:34.982Z,0
2018-07-16T02:30:39.090Z,0
2018-07-16T02:30:43.186Z,0
2018-07-16T02:30:47.513Z,0
2018-07-16T02:30:51.722Z,0
2018-07-16T02:30:56.032Z,0
2018-07-16T02:31:00.354Z,0
2018-07-16T02:31:04.248Z,0
2018-07-16T02:31:08.577Z,0
2018-07-16T02:31:12.568Z,0
2018-07-16T02:31:16.679Z,0
2018-07-16T02:31:20.899Z,0
2018-07-16T02:31:25.215Z,0
2018-07-16T02:31:29.429Z,0
2018-07-16T02:31:33.539Z,0
2018-07-16T02:31:37.870Z,0
2018-07-16T02:31:42.080Z,0
2018-07-16T02:31:46.292Z,0
2018-07-16T02:31:50.615Z,0
2018-07-16T02:31:54.819Z,0
2018-07-16T02:31:59.148Z,0
2018-07-16T02:32:03.260Z,0
2018-07-16T02:32:07.484Z,0
2018-07-16T02:32:11.691Z,0
2018-07-16T02:32:16.015Z,0
2018-07-16T02:32:20.134Z,0
2018-07-16T02:32:24.352Z,0
2018-07-16T02:32:28.562Z,0
2018-07-16T02:32:32.883Z,0
2018-07-16T02:32:37.201Z,0
2018-07-16T02:32:41.516Z,0
2018-07-16T02:32:45.889Z,0
2018-07-16T02:32:50.095Z,0
2018-07-16T02:32:54.205Z,0
2018-07-16T02:32:58.425Z,0
2018-07-16T02:33:02.524Z,0
2018-07-16T02:33:06.521Z,0
2018-07-16T02:33:10.728Z,0
2018-07-16T02:33:14.858Z,0
2018-07-16T02:33:19.077Z,0
2018-07-16T02:33:23.179Z,0
2018-07-16T02:33:27.426Z,0
2018-07-16T02:33:31.532Z,0
2018-07-16T02:33:35.631Z,0
2018-07-16T02:33:39.854Z,0
2018-07-16T02:33:44.165Z,0
2018-07-16T02:33:48.369Z,0
2018-07-16T02:33:52.462Z,0
2018-07-16T02:33:56.680Z,0
2018-07-16T02:34:00.896Z,0
2018-07-16T02:34:05.109Z,0
2018-07-16T02:34:09.433Z,0
2018-07-16T02:34:13.535Z,0
2018-07-16T02:34:17.861Z,0
2018-07-16T02:34:21.963Z,0
2018-07-16T02:34:26.289Z,0
2018-07-16T02:34:30.296Z,0
2018-07-16T02:34:34.509Z,0
2018-07-16T02:34:38.634Z,0
2018-07-16T02:34:42.857Z,0
2018-07-16T02:34:47.167Z,0
2018-07-16T02:34:51.268Z,0
2018-07-16T02:34:55.368Z,0
2018-07-16T02:34:59.472Z,0
2018-07-16T02:35:03.599Z,0
2018-07-16T02:35:07.595Z,0
2018-07-16T02:35:11.907Z,0
2018-07-16T02:35:16.227Z,0
2018-07-16T02:35:20.544Z,0
2018-07-16T02:35:24.871Z,0
2018-07-16T02:35:29.080Z,0
2018-07-16T02:35:33.285Z,0
2018-07-16T02:35:37.605Z,0
2018-07-16T02:35:41.732Z,0
2018-07-16T02:35:46.060Z,0
2018-07-16T02:35:50.198Z,0
2018-07-16T02:35:54.419Z,0
2018-07-16T02:35:58.640Z,0
2018-07-16T02:36:02.645Z,0
2018-07-16T02:36:06.845Z,0
2018-07-16T02:36:11.055Z,0
2018-07-16T02:36:15.385Z,0
2018-07-16T02:36:19.380Z,0
2018-07-16T02:36:23.701Z,0
2018-07-16T02:36:27.912Z,0
2018-07-16T02:36:32.227Z,0
2018-07-16T02:36:36.545Z,0
2018-07-16T02:36:40.751Z,0
2018-07-16T02:36:45.064Z,0
2018-07-16T02:36:49.381Z,0
2018-07-16T02:36:53.592Z,0
2018-07-16T02:36:57.801Z,0
2018-07-16T02:37:02.127Z,0
2018-07-16T02:37:06.129Z,0
2018-07-16T02:37:10.338Z,0
2018-07-16T02:37:14.546Z,0
2018-07-16T02:37:18.868Z,0
2018-07-16T02:37:23.081Z,0
2018-07-16T02:37:27.298Z,0
2018-07-16T02:37:31.617Z,0.09
2018-07-16T02:37:35.718Z,0
2018-07-16T02:37:39.933Z,0
2018-07-16T02:37:44.043Z,0
2018-07-16T02:37:48.259Z,0
2018-07-16T02:37:52.457Z,0
2018-07-16T02:37:56.767Z,0
2018-07-16T02:38:01.000Z,0
2018-07-16T02:38:05.269Z,0
2018-07-16T02:38:09.484Z,0
2018-07-16T02:38:13.703Z,0.09
2018-07-16T02:38:18.022Z,0
2018-07-16T02:38:22.389Z,0.38
2018-07-16T02:38:26.596Z,0.38
2018-07-16T02:38:30.918Z,0.09
2018-07-16T02:38:35.286Z,0.19
2018-07-16T02:38:39.657Z,0.09
2018-07-16T02:38:44.061Z,0.19
2018-07-16T02:38:48.394Z,0.19
2018-07-16T02:38:52.629Z,0.29
2018-07-16T02:38:56.952Z,0.29
2018-07-16T02:39:01.188Z,0.19
2018-07-16T02:39:05.293Z,0.09
2018-07-16T02:39:09.281Z,0.09
2018-07-16T02:39:13.510Z,0.19
2018-07-16T02:39:17.723Z,0.19
2018-07-16T02:39:21.952Z,0.19
2018-07-16T02:39:26.106Z,0.19
2018-07-16T02:39:30.212Z,0.09
2018-07-16T02:39:34.587Z,0.29
2018-07-16T02:39:38.794Z,0.09
2018-07-16T02:39:42.893Z,0.09
2018-07-16T02:39:46.995Z,0.19
2018-07-16T02:39:51.220Z,0.09
2018-07-16T02:39:55.543Z,0.09
2018-07-16T02:39:59.541Z,0
2018-07-16T02:40:03.644Z,0.09
2018-07-16T02:40:07.749Z,0.09
2018-07-16T02:40:11.855Z,0.19
2018-07-16T02:40:15.956Z,0.29
2018-07-16T02:40:20.163Z,0.38
2018-07-16T02:40:24.381Z,0.38
2018-07-16T02:40:28.605Z,0.38
2018-07-16T02:40:32.916Z,0.29
2018-07-16T02:40:37.127Z,0.29
2018-07-16T02:40:41.399Z,0.19
2018-07-16T02:40:45.597Z,0.48
2018-07-16T02:40:49.921Z,0.29
2018-07-16T02:40:54.130Z,0.29
2018-07-16T02:40:58.343Z,0.19
2018-07-16T02:41:02.720Z,0.19
2018-07-16T02:41:06.718Z,0.19
2018-07-16T02:41:10.823Z,0.19
2018-07-16T02:41:15.054Z,0.38
2018-07-16T02:41:19.367Z,0.29
2018-07-16T02:41:23.473Z,0.19
2018-07-16T02:41:27.694Z,0.38
2018-07-16T02:41:31.899Z,0.67
2018-07-16T02:41:36.210Z,0.48
2018-07-16T02:41:40.597Z,0.38
2018-07-16T02:41:44.596Z,0.48
2018-07-16T02:41:48.920Z,0.57
2018-07-16T02:41:53.141Z,0.48
2018-07-16T02:41:57.357Z,0.38
2018-07-16T02:42:01.671Z,0.38
2018-07-16T02:42:05.774Z,0.67
2018-07-16T02:42:09.984Z,0.38
2018-07-16T02:42:14.218Z,0.48
2018-07-16T02:42:18.543Z,0.48
2018-07-16T02:42:22.873Z,0.76
2018-07-16T02:42:27.099Z,0.76
2018-07-16T02:42:31.430Z,0.76
2018-07-16T02:42:35.745Z,0.76
2018-07-16T02:42:39.842Z,0.67
2018-07-16T02:42:43.939Z,0.76
2018-07-16T02:42:48.259Z,0.76
2018-07-16T02:42:52.357Z,0.76
2018-07-16T02:42:56.572Z,0.57
2018-07-16T02:43:00.673Z,0.76
2018-07-16T02:43:04.892Z,0.76
2018-07-16T02:43:09.211Z,0.86
2018-07-16T02:43:13.431Z,0.76
2018-07-16T02:43:17.639Z,0.57
2018-07-16T02:43:21.984Z,0.76
2018-07-16T02:43:26.094Z,0.57
2018-07-16T02:43:30.419Z,0.57
2018-07-16T02:43:34.749Z,0.67
2018-07-16T02:43:38.757Z,0.29
2018-07-16T02:43:42.859Z,0.48
2018-07-16T02:43:47.183Z,0.29
2018-07-16T02:43:51.292Z,0.57
2018-07-16T02:43:55.401Z,0.19
2018-07-16T02:43:59.716Z,0.29
2018-07-16T02:44:03.717Z,0.19
2018-07-16T02:44:07.631Z,0.09
2018-07-16T02:44:11.841Z,0.19
2018-07-16T02:44:16.063Z,0.29
2018-07-16T02:44:20.179Z,0.19
2018-07-16T02:44:24.418Z,0
2018-07-16T02:44:28.526Z,0
2018-07-16T02:44:32.621Z,0
2018-07-16T02:44:36.938Z,0
2018-07-16T02:44:41.053Z,0
2018-07-16T02:44:45.365Z,0
2018-07-16T02:44:49.471Z,0
2018-07-16T02:44:53.672Z,0
2018-07-16T02:44:57.899Z,0
2018-07-16T02:45:02.117Z,0
2018-07-16T02:45:06.295Z,0
2018-07-16T02:45:10.399Z,0
2018-07-16T02:45:14.508Z,0
2018-07-16T02:45:18.710Z,0
2018-07-16T02:45:23.025Z,0
2018-07-16T02:45:27.234Z,0
2018-07-16T02:45:31.445Z,0
2018-07-16T02:45:35.553Z,0
2018-07-16T02:45:39.873Z,0
2018-07-16T02:45:44.061Z,0
2018-07-16T02:45:48.380Z,0
2018-07-16T02:45:52.705Z,0
2018-07-16T02:45:56.820Z,0
2018-07-16T02:46:01.037Z,0
2018-07-16T02:46:05.044Z,0
2018-07-16T02:46:09.258Z,0
2018-07-16T02:46:13.259Z,0
2018-07-16T02:46:17.471Z,0
2018-07-16T02:46:21.699Z,0
2018-07-16T02:46:25.793Z,0
2018-07-16T02:46:30.133Z,0
2018-07-16T02:46:34.467Z,0
2018-07-16T02:46:38.804Z,0
2018-07-16T02:46:43.008Z,0
2018-07-16T02:46:47.351Z,0
2018-07-16T02:46:51.564Z,0
2018-07-16T02:46:55.675Z,0
2018-07-16T02:46:59.896Z,0
2018-07-16T02:47:03.944Z,0
2018-07-16T02:47:08.048Z,0
2018-07-16T02:47:12.328Z,0
2018-07-16T02:47:16.536Z,0
2018-07-16T02:47:20.749Z,0
2018-07-16T02:47:24.955Z,0
2018-07-16T02:47:29.278Z,0
2018-07-16T02:47:33.483Z,0
2018-07-16T02:47:37.798Z,0
2018-07-16T02:47:41.998Z,0
2018-07-16T02:47:46.099Z,0
2018-07-16T02:47:50.413Z,0
2018-07-16T02:47:54.510Z,0
2018-07-16T02:47:58.633Z,0
2018-07-16T02:48:02.625Z,0
2018-07-16T02:48:06.725Z,0
2018-07-16T02:48:10.823Z,0
2018-07-16T02:48:14.819Z,0
2018-07-16T02:48:18.924Z,0
2018-07-16T02:48:23.241Z,0
2018-07-16T02:48:27.236Z,0
2018-07-16T02:48:31.446Z,0
2018-07-16T02:48:35.769Z,0
2018-07-16T02:48:40.086Z,0
2018-07-16T02:48:44.415Z,0
2018-07-16T02:48:48.738Z,0
2018-07-16T02:48:53.029Z,0
2018-07-16T02:48:57.341Z,0
2018-07-16T02:49:01.550Z,0
2018-07-16T02:49:05.682Z,0
2018-07-16T02:49:09.891Z,0
2018-07-16T02:49:14.098Z,0
2018-07-16T02:49:18.200Z,0
2018-07-16T02:49:22.410Z,0
2018-07-16T02:49:26.515Z,0
2018-07-16T02:49:30.737Z,0
2018-07-16T02:49:34.733Z,0
2018-07-16T02:49:39.051Z,0
2018-07-16T02:49:43.195Z,0
2018-07-16T02:49:47.511Z,0
2018-07-16T02:49:51.722Z,0
2018-07-16T02:49:56.003Z,0
2018-07-16T02:50:00.211Z,0
2018-07-16T02:50:04.432Z,0
2018-07-16T02:50:08.529Z,0
2018-07-16T02:50:12.523Z,0
2018-07-16T02:50:16.837Z,0
2018-07-16T02:50:21.150Z,0
2018-07-16T02:50:25.366Z,0
2018-07-16T02:50:29.683Z,0
2018-07-16T02:50:33.783Z,0
2018-07-16T02:50:37.879Z,0
2018-07-16T02:50:42.088Z,0
2018-07-16T02:50:46.413Z,0
2018-07-16T02:50:50.732Z,0
2018-07-16T02:50:54.943Z,0
2018-07-16T02:50:59.164Z,0
2018-07-16T02:51:03.374Z,0
2018-07-16T02:51:07.479Z,0
2018-07-16T02:51:11.801Z,0
2018-07-16T02:51:16.012Z,0
2018-07-16T02:51:20.110Z,0
2018-07-16T02:51:24.333Z,0
2018-07-16T02:51:28.552Z,0
2018-07-16T02:51:32.868Z,0
2018-07-16T02:51:37.084Z,0
2018-07-16T02:51:41.291Z,0
2018-07-16T02:51:45.503Z,0
2018-07-16T02:51:49.713Z,0
2018-07-16T02:51:54.027Z,0
2018-07-16T02:51:58.340Z,0
2018-07-16T02:52:02.544Z,0
2018-07-16T02:52:06.856Z,0
2018-07-16T02:52:11.072Z,0
2018-07-16T02:52:15.391Z,0
2018-07-16T02:52:19.613Z,0
2018-07-16T02:52:23.821Z,0
2018-07-16T02:52:28.026Z,0
2018-07-16T02:52:32.252Z,0
2018-07-16T02:52:36.574Z,0
2018-07-16T02:52:40.778Z,0
2018-07-16T02:52:44.992Z,0
2018-07-16T02:52:49.208Z,0
2018-07-16T02:52:53.317Z,0
2018-07-16T02:52:57.529Z,0
2018-07-16T02:53:01.746Z,0
2018-07-16T02:53:05.750Z,0
2018-07-16T02:53:09.967Z,0
2018-07-16T02:53:14.281Z,0
2018-07-16T02:53:18.493Z,0
2018-07-16T02:53:22.587Z,0
2018-07-16T02:53:26.918Z,0
2018-07-16T02:53:31.228Z,0
2018-07-16T02:53:35.607Z,0
2018-07-16T02:53:39.703Z,0
2018-07-16T02:53:43.819Z,0
2018-07-16T02:53:48.144Z,0
2018-07-16T02:53:52.246Z,0
2018-07-16T02:53:56.449Z,0
2018-07-16T02:54:00.851Z,0
2018-07-16T02:54:05.178Z,0
2018-07-16T02:54:09.500Z,0
2018-07-16T02:54:13.824Z,0
2018-07-16T02:54:18.063Z,0
2018-07-16T02:54:22.192Z,0
2018-07-16T02:54:26.196Z,0
2018-07-16T02:54:30.407Z,0
2018-07-16T02:54:34.620Z,0
2018-07-16T02:54:38.965Z,0
2018-07-16T02:54:43.170Z,0
2018-07-16T02:54:47.485Z,0
2018-07-16T02:54:51.831Z,0
2018-07-16T02:54:56.179Z,0
2018-07-16T02:55:00.395Z,0
2018-07-16T02:55:04.490Z,0
2018-07-16T02:55:08.697Z,0
2018-07-16T02:55:13.000Z,0
2018-07-16T02:55:17.205Z,0
2018-07-16T02:55:21.408Z,0
2018-07-16T02:55:25.505Z,0
2018-07-16T02:55:29.496Z,0
2018-07-16T02:55:33.820Z,0
2018-07-16T02:55:38.136Z,0
2018-07-16T02:55:42.450Z,0
2018-07-16T02:55:46.570Z,0
2018-07-16T02:55:50.902Z,0
2018-07-16T02:55:55.229Z,0
2018-07-16T02:55:59.543Z,0
2018-07-16T02:56:03.653Z,0
2018-07-16T02:56:07.654Z,0
2018-07-16T02:56:11.882Z,0
2018-07-16T02:56:16.022Z,0
2018-07-16T02:56:20.603Z,0
2018-07-16T02:56:25.142Z,0
2018-07-16T02:56:30.436Z,0
2018-07-16T02:56:35.704Z,0
2018-07-16T02:56:39.721Z,0
2018-07-16T02:56:43.935Z,0
2018-07-16T02:56:48.254Z,0
2018-07-16T02:56:52.494Z,0
2018-07-16T02:56:56.822Z,0
2018-07-16T02:57:01.140Z,0
2018-07-16T02:57:05.357Z,0
2018-07-16T02:57:09.569Z,0
2018-07-16T02:57:13.672Z,0
2018-07-16T02:57:17.988Z,0
2018-07-16T02:57:21.879Z,0
2018-07-16T02:57:26.336Z,0
2018-07-16T02:57:30.554Z,0
2018-07-16T02:57:34.767Z,0
2018-07-16T02:57:38.976Z,0
2018-07-16T02:57:43.194Z,0
2018-07-16T02:57:47.403Z,0
2018-07-16T02:57:51.720Z,0
2018-07-16T02:57:56.034Z,0
2018-07-16T02:58:00.364Z,0
2018-07-16T02:58:04.598Z,0
2018-07-16T02:58:08.983Z,0
2018-07-16T02:58:13.308Z,0
2018-07-16T02:58:17.625Z,0
2018-07-16T02:58:21.844Z,0
2018-07-16T02:58:26.053Z,0
2018-07-16T02:58:30.389Z,0
2018-07-16T02:58:34.605Z,0
2018-07-16T02:58:38.933Z,0
2018-07-16T02:58:43.032Z,0
2018-07-16T02:58:47.244Z,0
2018-07-16T02:58:51.348Z,0
2018-07-16T02:58:55.241Z,0
2018-07-16T02:58:59.380Z,0
2018-07-16T02:59:03.375Z,0
2018-07-16T02:59:07.375Z,0
2018-07-16T02:59:11.695Z,0
2018-07-16T02:59:15.924Z,0
2018-07-16T02:59:20.026Z,0
2018-07-16T02:59:24.251Z,0
2018-07-16T02:59:28.463Z,0
2018-07-16T02:59:32.691Z,0
2018-07-16T02:59:36.914Z,0
2018-07-16T02:59:41.017Z,0
2018-07-16T02:59:45.114Z,0
2018-07-16T02:59:49.335Z,0
2018-07-16T02:59:53.561Z,0
2018-07-16T02:59:57.575Z,0
2018-07-16T03:00:01.797Z,0
2018-07-16T03:00:05.678Z,0
2018-07-16T03:00:09.962Z,0
2018-07-16T03:00:14.287Z,0
2018-07-16T03:00:18.608Z,0
2018-07-16T03:00:22.724Z,0
2018-07-16T03:00:26.624Z,0
2018-07-16T03:00:30.951Z,0
2018-07-16T03:00:35.279Z,0
2018-07-16T03:00:39.600Z,0
2018-07-16T03:00:43.823Z,0
2018-07-16T03:00:48.023Z,0
2018-07-16T03:00:52.372Z,0
2018-07-16T03:00:56.689Z,0
2018-07-16T03:01:01.009Z,0
2018-07-16T03:01:05.134Z,0
2018-07-16T03:01:09.457Z,0
2018-07-16T03:01:13.664Z,0
2018-07-16T03:01:18.005Z,0
2018-07-16T03:01:22.212Z,0
2018-07-16T03:01:26.428Z,0
2018-07-16T03:01:30.538Z,0
2018-07-16T03:01:34.856Z,0
2018-07-16T03:01:39.177Z,0
2018-07-16T03:01:43.404Z,0
2018-07-16T03:01:47.614Z,0
2018-07-16T03:01:51.949Z,0
2018-07-16T03:01:56.267Z,0